createdAt,value
2018-12-18T00:01:55.565Z,4.70
2018-12-18T00:04:24.007Z,4.70
2018-12-18T00:06:52.418Z,4.70
2018-12-18T00:09:20.880Z,4.70
2018-12-18T00:11:49.277Z,4.80
2018-12-18T00:14:21.567Z,4.70
2018-12-18T00:16:50.032Z,4.70
2018-12-18T00:19:18.403Z,4.70
2018-12-18T00:21:46.928Z,4.70
2018-12-18T00:24:17.499Z,4.70
2018-12-18T00:26:46.000Z,4.70
2018-12-18T00:29:14.388Z,4.80
2018-12-18T00:31:42.780Z,4.70
2018-12-18T00:34:11.267Z,4.70
2018-12-18T00:36:39.678Z,4.70
2018-12-18T00:39:12.344Z,4.70
2018-12-18T00:41:40.980Z,4.70
2018-12-18T00:44:09.487Z,4.60
2018-12-18T00:46:37.954Z,4.60
2018-12-18T00:49:06.554Z,4.60
2018-12-18T00:51:34.926Z,4.50
2018-12-18T00:54:03.309Z,4.50
2018-12-18T00:56:31.706Z,4.50
2018-12-18T00:59:00.106Z,4.50
2018-12-18T01:01:28.523Z,4.40
2018-12-18T01:03:56.896Z,4.30
2018-12-18T01:06:25.382Z,4.20
2018-12-18T01:08:53.742Z,4.20
2018-12-18T01:11:22.137Z,4.20
2018-12-18T01:13:50.597Z,4.10
2018-12-18T01:16:21.868Z,4.20
2018-12-18T01:18:51.947Z,4.10
2018-12-18T01:21:21.282Z,4.00
2018-12-18T01:23:51.993Z,4.00
2018-12-18T01:26:20.436Z,3.90
2018-12-18T01:28:48.829Z,3.80
2018-12-18T01:31:17.215Z,3.80
2018-12-18T01:33:45.699Z,3.80
2018-12-18T01:36:14.228Z,3.70
2018-12-18T01:38:42.694Z,3.70
2018-12-18T01:41:11.059Z,3.60
2018-12-18T01:43:39.482Z,3.60
2018-12-18T01:46:07.885Z,3.60
2018-12-18T01:48:36.384Z,3.50
2018-12-18T01:51:04.746Z,3.50
2018-12-18T01:53:33.333Z,3.40
2018-12-18T01:56:01.840Z,3.40
2018-12-18T01:58:30.243Z,3.40
2018-12-18T02:00:58.627Z,3.50
2018-12-18T02:03:27.150Z,3.50
2018-12-18T02:05:56.177Z,3.60
2018-12-18T02:08:24.569Z,3.60
2018-12-18T02:10:53.118Z,3.50
2018-12-18T02:13:21.532Z,3.50
2018-12-18T02:15:51.405Z,3.40
2018-12-18T02:18:19.914Z,3.40
2018-12-18T02:20:48.565Z,3.30
2018-12-18T02:23:17.044Z,3.20
2018-12-18T02:25:46.200Z,3.10
2018-12-18T02:28:14.677Z,3.10
2018-12-18T02:30:43.048Z,3.00
2018-12-18T02:33:11.453Z,3.00
2018-12-18T02:35:39.895Z,3.00
2018-12-18T02:38:08.285Z,3.10
2018-12-18T02:45:27.207Z,3.10
2018-12-18T02:47:55.738Z,2.90
2018-12-18T02:50:24.111Z,3.00
2018-12-18T02:52:53.191Z,3.00
2018-12-18T02:55:21.833Z,3.10
2018-12-18T02:57:50.252Z,3.10
2018-12-18T03:00:18.712Z,3.10
2018-12-18T03:02:47.141Z,3.20
2018-12-18T03:05:15.570Z,3.20
2018-12-18T03:07:44.004Z,3.20
2018-12-18T03:10:12.370Z,3.20
2018-12-18T03:12:40.772Z,3.20
2018-12-18T03:15:09.235Z,3.30
2018-12-18T03:17:37.665Z,3.30
2018-12-18T03:20:06.895Z,3.40
2018-12-18T03:22:35.253Z,3.40
2018-12-18T03:25:04.084Z,3.50
2018-12-18T03:27:32.443Z,3.50
2018-12-18T03:30:00.877Z,3.50
2018-12-18T03:32:37.142Z,3.50
2018-12-18T03:35:05.739Z,3.50
2018-12-18T03:37:34.101Z,3.60
2018-12-18T03:40:02.537Z,3.70
2018-12-18T03:42:30.905Z,3.80
2018-12-18T03:44:59.334Z,3.80
2018-12-18T03:47:27.689Z,3.80
2018-12-18T03:49:56.119Z,3.90
2018-12-18T03:52:24.514Z,3.90
2018-12-18T03:54:53.007Z,4.00
2018-12-18T03:57:22.367Z,4.00
2018-12-18T03:59:50.779Z,4.00
2018-12-18T04:02:19.300Z,4.00
2018-12-18T04:04:47.705Z,4.00
2018-12-18T04:07:16.200Z,4.10
2018-12-18T04:09:44.594Z,4.10
2018-12-18T04:12:18.297Z,4.10
2018-12-18T04:14:46.646Z,4.10
2018-12-18T04:17:15.080Z,4.10
2018-12-18T04:19:43.555Z,4.10
2018-12-18T04:22:11.983Z,4.10
2018-12-18T04:24:40.357Z,4.10
2018-12-18T04:27:08.770Z,4.10
2018-12-18T04:29:37.132Z,4.10
2018-12-18T04:32:05.535Z,4.10
2018-12-18T04:34:34.027Z,4.20
2018-12-18T04:37:03.373Z,4.20
2018-12-18T04:39:32.484Z,4.20
2018-12-18T04:42:01.322Z,4.20
2018-12-18T04:44:29.646Z,4.20
2018-12-18T04:46:58.025Z,4.20
2018-12-18T04:49:26.446Z,4.20
2018-12-18T04:51:54.848Z,4.20
2018-12-18T04:54:23.515Z,4.20
2018-12-18T04:56:51.938Z,4.20
2018-12-18T04:59:20.291Z,4.20
2018-12-18T05:01:48.718Z,4.20
2018-12-18T05:04:17.146Z,4.30
2018-12-18T05:06:45.510Z,4.20
2018-12-18T05:09:14.703Z,4.20
2018-12-18T05:11:43.512Z,4.30
2018-12-18T05:14:12.076Z,4.30
2018-12-18T05:16:40.450Z,4.40
2018-12-18T05:19:08.822Z,4.30
2018-12-18T05:21:37.680Z,4.30
2018-12-18T05:24:06.067Z,4.30
2018-12-18T05:26:34.455Z,4.30
2018-12-18T05:29:02.868Z,4.30
2018-12-18T05:31:33.078Z,4.30
2018-12-18T05:34:01.466Z,4.30
2018-12-18T05:36:29.830Z,4.30
2018-12-18T05:38:58.202Z,4.30
2018-12-18T05:41:26.589Z,4.30
2018-12-18T05:43:57.662Z,4.30
2018-12-18T05:46:26.048Z,4.30
2018-12-18T05:48:54.421Z,4.40
2018-12-18T05:51:22.778Z,4.40
2018-12-18T05:53:51.122Z,4.40
2018-12-18T05:56:19.562Z,4.30
2018-12-18T05:58:47.990Z,4.20
2018-12-18T06:01:16.763Z,4.20
2018-12-18T06:03:45.178Z,4.10
2018-12-18T06:06:13.617Z,4.10
2018-12-18T06:08:42.046Z,4.10
2018-12-18T06:11:10.402Z,4.10
2018-12-18T06:13:38.792Z,4.10
2018-12-18T06:16:07.341Z,4.10
2018-12-18T06:18:35.783Z,4.10
2018-12-18T06:21:04.179Z,4.10
2018-12-18T06:23:32.701Z,4.10
2018-12-18T06:26:01.110Z,4.10
2018-12-18T06:28:29.519Z,4.20
2018-12-18T06:30:58.047Z,4.20
2018-12-18T06:33:26.498Z,4.20
2018-12-18T06:35:54.915Z,4.20
2018-12-18T06:38:25.099Z,4.20
2018-12-18T06:40:54.924Z,4.20
2018-12-18T06:43:29.050Z,4.20
2018-12-18T06:45:57.714Z,4.20
2018-12-18T06:48:26.187Z,4.20
2018-12-18T06:50:54.590Z,4.20
2018-12-18T06:53:24.410Z,4.20
2018-12-18T06:55:54.196Z,4.20
2018-12-18T06:58:22.554Z,4.20
2018-12-18T07:00:52.373Z,4.20
2018-12-18T07:03:20.796Z,4.20
2018-12-18T07:05:49.275Z,4.10
2018-12-18T07:08:17.740Z,4.20
2018-12-18T07:10:46.275Z,4.10
2018-12-18T07:13:14.752Z,4.10
2018-12-18T07:15:43.177Z,4.10
2018-12-18T07:18:11.620Z,4.20
2018-12-18T07:20:40.454Z,4.20
2018-12-18T07:23:09.461Z,4.20
2018-12-18T07:25:41.210Z,4.20
2018-12-18T07:28:09.997Z,4.20
2018-12-18T07:30:38.541Z,4.20
2018-12-18T07:33:06.996Z,4.20
2018-12-18T07:35:35.454Z,4.20
2018-12-18T07:38:04.000Z,4.20
2018-12-18T07:40:32.409Z,4.20
2018-12-18T07:43:00.853Z,4.20
2018-12-18T07:45:29.351Z,4.20
2018-12-18T07:47:57.791Z,4.20
2018-12-18T07:50:26.250Z,4.30
2018-12-18T07:52:54.698Z,4.30
2018-12-18T07:55:23.091Z,4.30
2018-12-18T07:57:51.504Z,4.40
2018-12-18T08:00:20.010Z,4.40
2018-12-18T08:02:48.415Z,4.50
2018-12-18T08:05:16.856Z,4.50
2018-12-18T08:07:45.226Z,4.50
2018-12-18T08:10:13.651Z,4.60
2018-12-18T08:12:42.072Z,4.60
2018-12-18T08:15:10.477Z,4.60
2018-12-18T08:17:38.881Z,4.70
2018-12-18T08:20:07.657Z,4.70
2018-12-18T08:22:36.022Z,4.70
2018-12-18T08:25:05.417Z,4.80
2018-12-18T08:27:33.809Z,4.80
2018-12-18T08:30:02.200Z,4.90
2018-12-18T08:32:30.549Z,4.90
2018-12-18T08:34:58.947Z,4.90
2018-12-18T08:37:27.316Z,4.90
2018-12-18T08:39:56.447Z,4.90
2018-12-18T08:42:24.832Z,4.90
2018-12-18T08:44:53.282Z,4.90
2018-12-18T08:47:21.660Z,4.90
2018-12-18T08:49:50.308Z,5.00
2018-12-18T08:52:18.749Z,5.10
2018-12-18T08:54:47.247Z,5.10
2018-12-18T08:57:15.637Z,5.10
2018-12-18T08:59:44.044Z,5.20
2018-12-18T09:02:12.415Z,5.20
2018-12-18T09:04:40.808Z,5.20
2018-12-18T09:07:09.351Z,5.20
2018-12-18T09:09:37.919Z,5.30
2018-12-18T09:12:08.435Z,5.40
2018-12-18T09:14:38.803Z,5.40
2018-12-18T09:17:08.148Z,5.40
2018-12-18T09:19:36.875Z,5.40
2018-12-18T09:22:05.357Z,5.50
2018-12-18T09:24:33.945Z,5.60
2018-12-18T09:27:02.364Z,5.70
2018-12-18T09:29:31.891Z,5.70
2018-12-18T09:32:00.266Z,5.80
2018-12-18T09:34:28.653Z,5.80
2018-12-18T09:36:57.156Z,5.90
2018-12-18T09:39:30.907Z,5.90
2018-12-18T09:42:04.743Z,6.00
2018-12-18T09:44:33.196Z,6.10
2018-12-18T09:47:02.294Z,6.20
2018-12-18T09:49:30.815Z,6.20
2018-12-18T09:51:59.251Z,6.20
2018-12-18T09:54:27.715Z,6.30
2018-12-18T09:56:58.271Z,6.50
2018-12-18T09:59:27.002Z,6.60
2018-12-18T10:01:55.595Z,6.60
2018-12-18T10:04:24.079Z,6.70
2018-12-18T10:06:52.451Z,6.80
2018-12-18T10:09:20.897Z,6.80
2018-12-18T10:11:49.293Z,7.10
2018-12-18T10:14:17.732Z,7.50
2018-12-18T10:16:46.154Z,7.80
2018-12-18T10:19:14.579Z,8.00
2018-12-18T10:21:43.035Z,8.40
2018-12-18T10:24:11.513Z,8.60
2018-12-18T10:26:40.045Z,8.70
2018-12-18T10:29:08.466Z,8.60
2018-12-18T10:31:37.055Z,8.40
2018-12-18T10:34:05.439Z,8.20
2018-12-18T10:36:33.857Z,8.20
2018-12-18T10:39:02.256Z,8.10
2018-12-18T10:41:30.707Z,8.20
2018-12-18T10:43:59.168Z,8.40
2018-12-18T10:46:28.598Z,8.60
2018-12-18T10:48:57.070Z,8.80
2018-12-18T10:51:25.843Z,8.90
2018-12-18T10:53:54.273Z,8.80
2018-12-18T10:56:22.910Z,8.80
2018-12-18T10:58:51.275Z,8.70
2018-12-18T11:01:52.243Z,8.60
2018-12-18T11:04:20.663Z,8.30
2018-12-18T11:06:55.539Z,8.00
2018-12-18T11:09:23.950Z,7.90
2018-12-18T11:11:52.475Z,7.80
2018-12-18T11:14:20.907Z,7.80
2018-12-18T11:16:49.270Z,7.80
2018-12-18T11:19:18.694Z,7.90
2018-12-18T11:21:47.063Z,8.00
2018-12-18T11:24:15.834Z,8.00
2018-12-18T11:26:44.323Z,8.00
2018-12-18T11:29:13.667Z,7.90
2018-12-18T11:31:42.061Z,8.00
2018-12-18T11:34:10.511Z,8.00
2018-12-18T11:36:38.994Z,8.00
2018-12-18T11:39:07.984Z,8.30
2018-12-18T11:41:36.542Z,8.80
2018-12-18T11:44:05.109Z,9.50
2018-12-18T11:46:33.605Z,10.00
2018-12-18T11:49:01.966Z,10.30
2018-12-18T11:51:30.509Z,10.50
2018-12-18T11:53:58.972Z,10.50
2018-12-18T11:56:27.394Z,10.60
2018-12-18T11:58:55.829Z,10.30
2018-12-18T12:01:24.393Z,10.00
2018-12-18T12:03:52.761Z,9.80
2018-12-18T12:06:23.166Z,9.50
2018-12-18T12:08:52.924Z,9.20
2018-12-18T12:11:22.144Z,9.00
2018-12-18T12:13:51.678Z,8.80
2018-12-18T12:16:20.107Z,8.60
2018-12-18T12:18:49.372Z,8.50
2018-12-18T12:21:18.151Z,8.40
2018-12-18T12:23:46.747Z,8.40
2018-12-18T12:26:20.578Z,8.50
2018-12-18T12:28:49.105Z,8.50
2018-12-18T12:31:17.453Z,8.40
2018-12-18T12:33:45.811Z,8.30
2018-12-18T12:36:14.188Z,8.20
2018-12-18T12:38:42.569Z,8.10
2018-12-18T12:41:10.974Z,8.00
2018-12-18T12:43:39.729Z,7.90
2018-12-18T12:46:08.135Z,7.80
2018-12-18T12:48:42.754Z,7.80
2018-12-18T12:51:11.266Z,7.70
2018-12-18T12:53:39.696Z,7.70
2018-12-18T12:56:08.170Z,7.80
2018-12-18T12:58:36.685Z,7.90
2018-12-18T13:01:05.149Z,8.00
2018-12-18T13:03:33.611Z,8.10
2018-12-18T13:06:02.110Z,8.10
2018-12-18T13:08:30.555Z,8.20
2018-12-18T13:10:58.953Z,8.20
2018-12-18T13:13:27.392Z,8.40
2018-12-18T13:15:55.829Z,8.60
2018-12-18T13:18:24.485Z,8.80
2018-12-18T13:20:52.898Z,8.90
2018-12-18T13:23:21.326Z,8.90
2018-12-18T13:25:49.752Z,8.80
2018-12-18T13:28:18.107Z,8.80
2018-12-18T13:30:49.014Z,8.70
2018-12-18T13:33:17.690Z,8.80
2018-12-18T13:35:46.660Z,8.80
2018-12-18T13:38:15.763Z,8.80
2018-12-18T13:40:44.135Z,8.80
2018-12-18T13:43:12.526Z,8.90
2018-12-18T13:45:41.364Z,9.00
2018-12-18T13:48:10.039Z,9.30
2018-12-18T13:50:38.492Z,9.70
2018-12-18T13:53:06.875Z,10.10
2018-12-18T13:55:36.719Z,10.20
2018-12-18T13:58:05.595Z,10.10
2018-12-18T14:00:34.095Z,10.00
2018-12-18T14:03:02.843Z,10.20
2018-12-18T14:05:31.270Z,10.60
2018-12-18T14:07:59.651Z,10.70
2018-12-18T14:10:28.037Z,10.70
2018-12-18T14:12:57.865Z,10.50
2018-12-18T14:15:28.236Z,10.10
2018-12-18T14:17:58.383Z,9.70
2018-12-18T14:20:28.903Z,9.30
2018-12-18T14:23:00.510Z,9.00
2018-12-18T14:25:29.943Z,8.70
2018-12-18T14:27:59.996Z,8.40
2018-12-18T14:30:29.394Z,8.20
2018-12-18T14:32:58.854Z,8.00
2018-12-18T14:35:29.252Z,7.90
2018-12-18T14:38:00.368Z,7.80
2018-12-18T14:40:31.415Z,7.60
2018-12-18T14:43:01.968Z,7.50
2018-12-18T14:45:33.642Z,7.40
2018-12-18T14:48:04.043Z,7.20
2018-12-18T14:50:33.626Z,7.10
2018-12-18T14:53:04.348Z,7.00
2018-12-18T14:55:35.211Z,6.90
2018-12-18T14:58:05.940Z,6.70
2018-12-18T15:00:36.208Z,6.60
2018-12-18T15:03:07.316Z,6.40
2018-12-18T15:05:38.088Z,6.20
2018-12-18T15:08:07.698Z,6.00
2018-12-18T15:10:38.311Z,5.90
2018-12-18T15:13:08.213Z,5.70
2018-12-18T15:15:38.450Z,5.50
2018-12-18T15:18:08.742Z,5.40
2018-12-18T15:20:37.160Z,5.30
2018-12-18T15:23:05.666Z,5.10
2018-12-18T15:25:34.077Z,5.00
2018-12-18T15:28:02.534Z,4.90
2018-12-18T15:30:31.342Z,4.90
2018-12-18T15:33:00.702Z,4.80
2018-12-18T15:35:29.622Z,4.70
2018-12-18T15:37:58.190Z,4.60
2018-12-18T15:40:26.777Z,4.50
2018-12-18T15:42:55.186Z,4.50
2018-12-18T15:45:26.642Z,4.40
2018-12-18T15:47:55.189Z,4.30
2018-12-18T15:50:23.656Z,4.30
2018-12-18T15:52:52.148Z,4.30
2018-12-18T15:55:20.653Z,4.20
2018-12-18T15:57:49.051Z,4.20
2018-12-18T16:00:17.687Z,4.20
2018-12-18T16:02:46.137Z,4.20
2018-12-18T16:05:14.549Z,4.20
2018-12-18T16:07:43.097Z,4.20
2018-12-18T16:10:11.591Z,4.10
2018-12-18T16:12:40.111Z,4.10
2018-12-18T16:15:09.184Z,4.00
2018-12-18T16:17:37.924Z,4.00
2018-12-18T16:20:07.045Z,4.00
2018-12-18T16:25:52.164Z,3.90
2018-12-18T16:28:20.746Z,3.90
2018-12-18T16:30:49.332Z,3.90
2018-12-18T16:33:17.820Z,3.90
2018-12-18T16:35:46.515Z,3.80
2018-12-18T16:38:15.117Z,3.80
2018-12-18T16:40:43.541Z,3.80
2018-12-18T16:43:11.951Z,3.80
2018-12-18T16:45:40.475Z,3.80
2018-12-18T16:48:08.981Z,3.80
2018-12-18T16:50:37.624Z,3.80
2018-12-18T16:53:06.136Z,3.80
2018-12-18T16:55:34.579Z,3.80
2018-12-18T16:58:03.211Z,3.70
2018-12-18T17:00:32.155Z,3.70
2018-12-18T17:03:00.736Z,3.70
2018-12-18T17:05:29.217Z,3.70
2018-12-18T17:07:58.182Z,3.60
2018-12-18T17:10:26.857Z,3.60
2018-12-18T17:12:55.839Z,3.60
2018-12-18T17:15:25.244Z,3.60
2018-12-18T17:17:53.739Z,3.70
2018-12-18T17:20:22.631Z,3.70
2018-12-18T17:22:51.382Z,3.70
2018-12-18T17:25:19.799Z,3.70
2018-12-18T17:27:48.295Z,3.70
2018-12-18T17:30:16.740Z,3.70
2018-12-18T17:32:45.476Z,3.70
2018-12-18T17:35:13.954Z,3.70
2018-12-18T17:37:42.346Z,3.70
2018-12-18T17:40:10.914Z,3.70
2018-12-18T17:42:39.512Z,3.60
2018-12-18T17:45:08.434Z,3.60
2018-12-18T17:47:36.978Z,3.50
2018-12-18T17:50:07.161Z,3.50
2018-12-18T17:52:35.581Z,3.40
2018-12-18T17:55:05.032Z,3.40
2018-12-18T17:57:40.407Z,3.30
2018-12-18T18:05:18.289Z,3.30
2018-12-18T18:07:46.686Z,3.30
2018-12-18T18:10:15.860Z,3.30
2018-12-18T18:12:44.312Z,3.30
2018-12-18T18:15:13.088Z,3.30
2018-12-18T18:17:41.539Z,3.30
2018-12-18T18:20:10.163Z,3.20
2018-12-18T18:22:38.771Z,3.20
2018-12-18T18:25:08.473Z,3.20
2018-12-18T18:27:37.006Z,3.20
2018-12-18T18:30:06.202Z,3.20
2018-12-18T18:32:34.866Z,3.30
2018-12-18T18:35:03.638Z,3.30
2018-12-18T18:37:32.108Z,3.30
2018-12-18T18:40:00.863Z,3.30
2018-12-18T18:42:29.536Z,3.30
2018-12-18T18:44:58.295Z,3.30
2018-12-18T18:47:26.770Z,3.30
2018-12-18T18:50:02.810Z,3.30
2018-12-18T18:52:31.963Z,3.30
2018-12-18T18:55:00.927Z,3.20
2018-12-18T18:57:29.487Z,3.20
2018-12-18T18:59:58.313Z,3.30
2018-12-18T19:02:27.050Z,3.30
2018-12-18T19:04:55.822Z,3.30
2018-12-18T19:07:24.295Z,3.20
2018-12-18T19:09:55.263Z,3.10
2018-12-18T19:12:27.142Z,3.10
2018-12-18T19:15:44.210Z,3.10
2018-12-18T19:18:12.631Z,3.00
2018-12-18T19:20:41.038Z,3.00
2018-12-18T19:23:10.195Z,2.90
2018-12-18T19:25:38.952Z,2.90
2018-12-18T19:29:02.964Z,2.90
2018-12-18T19:31:31.663Z,2.80
2018-12-18T19:34:00.228Z,2.80
2018-12-18T19:36:28.787Z,2.80
2018-12-18T19:38:57.232Z,2.80
2018-12-18T19:41:25.792Z,2.90
2018-12-18T19:43:54.170Z,2.90
2018-12-18T19:46:22.565Z,2.90
2018-12-18T19:52:18.471Z,2.90
2018-12-18T19:54:47.622Z,2.90
2018-12-18T19:57:17.709Z,2.80
2018-12-18T19:59:50.609Z,2.80
2018-12-18T20:02:19.137Z,2.80
2018-12-18T20:04:47.635Z,2.70
2018-12-18T20:07:16.204Z,2.70
2018-12-18T20:09:44.755Z,2.70
2018-12-18T20:12:13.814Z,2.60
2018-12-18T20:14:50.697Z,2.60
2018-12-18T20:17:19.449Z,2.60
2018-12-18T20:19:48.420Z,2.60
2018-12-18T20:22:16.988Z,2.60
2018-12-18T20:24:46.007Z,2.60
2018-12-18T20:27:14.523Z,2.50
2018-12-18T20:29:48.996Z,2.50
2018-12-18T20:32:30.327Z,2.50
2018-12-18T20:34:59.813Z,2.40
2018-12-18T20:37:37.120Z,2.30
2018-12-18T20:40:07.776Z,2.20
2018-12-18T20:42:37.025Z,2.20
2018-12-18T20:45:07.554Z,2.20
2018-12-18T20:47:42.855Z,2.30
2018-12-18T20:50:11.313Z,2.30
2018-12-18T20:52:40.406Z,2.40
2018-12-18T20:55:08.854Z,2.40
2018-12-18T20:57:37.667Z,2.50
2018-12-18T21:00:08.886Z,2.40
2018-12-18T21:02:37.732Z,2.40
2018-12-18T21:05:10.444Z,2.50
2018-12-18T21:07:38.967Z,2.50
2018-12-18T21:10:09.390Z,2.50
2018-12-18T21:12:38.660Z,2.50
2018-12-18T21:15:07.702Z,2.40
2018-12-18T21:20:34.383Z,2.30
2018-12-18T21:23:04.976Z,2.40
2018-12-18T21:25:33.421Z,2.30
2018-12-18T21:28:01.880Z,2.30
2018-12-18T21:30:30.633Z,2.30
2018-12-18T21:32:59.330Z,2.20
2018-12-18T21:35:31.133Z,2.20
2018-12-18T21:38:00.384Z,2.20
2018-12-18T21:40:29.058Z,2.30
2018-12-18T21:43:03.165Z,2.30
2018-12-18T21:45:33.184Z,2.30
2018-12-18T21:48:02.064Z,2.40
2018-12-18T21:50:31.114Z,2.40
2018-12-18T21:53:01.344Z,2.40
2018-12-18T21:55:31.690Z,2.30
2018-12-18T21:58:00.147Z,2.30
2018-12-18T22:03:20.871Z,2.20
2018-12-18T22:05:50.798Z,2.20
2018-12-18T22:08:23.473Z,2.20
2018-12-18T22:10:52.538Z,2.10
2018-12-18T22:13:21.069Z,2.10
2018-12-18T22:15:49.750Z,2.10
2018-12-18T22:18:20.608Z,2.20
2018-12-18T22:20:49.127Z,2.10
2018-12-18T22:23:18.132Z,2.10
2018-12-18T22:25:46.571Z,2.00
2018-12-18T22:28:15.402Z,2.00
2018-12-18T22:30:44.332Z,1.90
2018-12-18T22:33:14.471Z,1.80
2018-12-18T22:35:43.605Z,1.70
2018-12-18T22:38:15.252Z,1.70
2018-12-18T22:40:43.752Z,1.70
2018-12-18T22:43:12.752Z,1.70
2018-12-18T22:45:42.656Z,1.60
2018-12-18T22:48:11.246Z,1.60
2018-12-18T22:50:39.896Z,1.60
2018-12-18T22:53:08.392Z,1.70
2018-12-18T22:55:36.883Z,1.70
2018-12-18T22:58:05.701Z,1.70
2018-12-18T23:00:40.735Z,1.70
2018-12-18T23:03:09.918Z,1.70
2018-12-18T23:05:39.517Z,1.70
2018-12-18T23:08:10.420Z,1.70
2018-12-18T23:10:39.906Z,1.70
2018-12-18T23:13:08.504Z,1.70
2018-12-18T23:15:39.721Z,1.70
2018-12-18T23:18:10.874Z,1.60
2018-12-18T23:20:41.495Z,1.60
2018-12-18T23:23:12.200Z,1.50
2018-12-18T23:25:41.024Z,1.50
2018-12-18T23:28:10.324Z,1.40
2018-12-18T23:30:39.014Z,1.30
2018-12-18T23:33:15.980Z,1.30
2018-12-18T23:35:46.717Z,1.20
2018-12-18T23:38:15.247Z,1.20
2018-12-18T23:40:43.757Z,1.10
2018-12-18T23:43:12.936Z,1.10
2018-12-18T23:45:42.565Z,1.20
2018-12-18T23:48:11.202Z,1.20
2018-12-18T23:50:42.586Z,1.30
2018-12-18T23:53:12.503Z,1.40
2018-12-18T23:55:42.892Z,1.40
2018-12-18T23:58:13.111Z,1.40
